sensor_id;sensor_type;location;lat;lon;timestamp;pressure;altitude;pressure_sealevel;temperature;humidity
6500;BME280;3283;52.330;9.772;2022-09-13T00:00:39;100284.13;;;15.38;100.00
6500;BME280;3283;52.330;9.772;2022-09-13T00:03:05;100268.09;;;15.41;100.00
6500;BME280;3283;52.330;9.772;2022-09-13T00:05:31;100269.25;;;15.34;100.00
6500;BME280;3283;52.330;9.772;2022-09-13T00:07:57;100277.19;;;15.34;100.00
6500;BME280;3283;52.330;9.772;2022-09-13T00:10:23;100273.91;;;15.27;100.00
6500;BME280;3283;52.330;9.772;2022-09-13T00:12:50;100264.94;;;15.31;100.00
6500;BME280;3283;52.330;9.772;2022-09-13T00:15:15;100252.91;;;15.23;100.00
6500;BME280;3283;52.330;9.772;2022-09-13T00:17:41;100239.75;;;15.20;100.00
6500;BME280;3283;52.330;9.772;2022-09-13T00:20:07;100257.78;;;15.33;100.00
6500;BME280;3283;52.330;9.772;2022-09-13T00:22:33;100262.09;;;15.36;100.00
6500;BME280;3283;52.330;9.772;2022-09-13T00:24:58;100261.19;;;15.37;100.00
6500;BME280;3283;52.330;9.772;2022-09-13T00:27:25;100271.53;;;15.43;100.00
6500;BME280;3283;52.330;9.772;2022-09-13T00:29:50;100254.13;;;15.36;100.00
6500;BME280;3283;52.330;9.772;2022-09-13T00:32:16;100263.66;;;15.42;100.00
6500;BME280;3283;52.330;9.772;2022-09-13T00:34:42;100265.25;;;15.46;100.00
6500;BME280;3283;52.330;9.772;2022-09-13T00:37:07;100265.25;;;15.46;100.00
6500;BME280;3283;52.330;9.772;2022-09-13T00:39:33;100259.81;;;15.49;100.00
6500;BME280;3283;52.330;9.772;2022-09-13T00:41:58;100235.22;;;15.45;100.00
6500;BME280;3283;52.330;9.772;2022-09-13T00:47:13;100240.97;;;15.56;100.00
6500;BME280;3283;52.330;9.772;2022-09-13T00:49:41;100237.38;;;15.57;100.00
6500;BME280;3283;52.330;9.772;2022-09-13T00:52:13;100235.44;;;15.62;100.00
6500;BME280;3283;52.330;9.772;2022-09-13T00:54:45;100222.34;;;15.58;100.00
6500;BME280;3283;52.330;9.772;2022-09-13T00:57:12;100230.69;;;15.71;100.00
6500;BME280;3283;52.330;9.772;2022-09-13T00:59:42;100226.25;;;15.71;100.00
6500;BME280;3283;52.330;9.772;2022-09-13T01:02:10;100213.75;;;15.75;100.00
6500;BME280;3283;52.330;9.772;2022-09-13T01:04:37;100217.13;;;15.78;100.00
6500;BME280;3283;52.330;9.772;2022-09-13T01:07:10;100217.81;;;15.83;100.00
6500;BME280;3283;52.330;9.772;2022-09-13T01:09:40;100210.69;;;15.84;100.00
6500;BME280;3283;52.330;9.772;2022-09-13T01:12:46;100212.38;;;15.86;99.96
6500;BME280;3283;52.330;9.772;2022-09-13T01:15:14;100191.34;;;15.82;99.88
6500;BME280;3283;52.330;9.772;2022-09-13T01:17:40;100206.16;;;15.87;99.42
6500;BME280;3283;52.330;9.772;2022-09-13T01:20:08;100190.00;;;15.92;99.30
6500;BME280;3283;52.330;9.772;2022-09-13T01:28:36;100186.44;;;16.13;97.94
6500;BME280;3283;52.330;9.772;2022-09-13T01:34:10;100176.44;;;16.20;97.69
6500;BME280;3283;52.330;9.772;2022-09-13T01:37:22;100167.22;;;16.29;97.33
6500;BME280;3283;52.330;9.772;2022-09-13T01:46:11;100166.69;;;16.20;97.43
6500;BME280;3283;52.330;9.772;2022-09-13T01:48:57;100161.31;;;16.22;97.80
6500;BME280;3283;52.330;9.772;2022-09-13T01:51:36;100157.72;;;16.23;98.60
6500;BME280;3283;52.330;9.772;2022-09-13T01:54:17;100154.22;;;16.23;98.47
6500;BME280;3283;52.330;9.772;2022-09-13T01:56:58;100154.94;;;16.26;97.81
6500;BME280;3283;52.330;9.772;2022-09-13T02:02:32;100150.44;;;16.28;99.21
6500;BME280;3283;52.330;9.772;2022-09-13T02:05:18;100148.50;;;16.32;98.23
6500;BME280;3283;52.330;9.772;2022-09-13T02:07:51;100146.78;;;16.31;98.90
6500;BME280;3283;52.330;9.772;2022-09-13T02:10:25;100148.31;;;16.36;98.59
6500;BME280;3283;52.330;9.772;2022-09-13T02:12:53;100148.06;;;16.41;98.42
6500;BME280;3283;52.330;9.772;2022-09-13T02:15:24;100148.03;;;16.42;98.35
6500;BME280;3283;52.330;9.772;2022-09-13T02:17:56;100153.63;;;16.55;97.29
6500;BME280;3283;52.330;9.772;2022-09-13T02:20:32;100156.56;;;16.49;98.88
6500;BME280;3283;52.330;9.772;2022-09-13T02:23:03;100149.47;;;16.50;99.21
6500;BME280;3283;52.330;9.772;2022-09-13T02:25:32;100156.63;;;16.47;99.50
6500;BME280;3283;52.330;9.772;2022-09-13T02:28:02;100156.53;;;16.51;99.56
6500;BME280;3283;52.330;9.772;2022-09-13T02:30:32;100160.91;;;16.52;100.00
6500;BME280;3283;52.330;9.772;2022-09-13T02:33:09;100157.31;;;16.53;100.00
6500;BME280;3283;52.330;9.772;2022-09-13T02:35:39;100151.84;;;16.56;100.00
6500;BME280;3283;52.330;9.772;2022-09-13T02:38:12;100170.31;;;16.59;100.00
6500;BME280;3283;52.330;9.772;2022-09-13T02:40:46;100170.25;;;16.60;100.00
6500;BME280;3283;52.330;9.772;2022-09-13T02:43:19;100165.13;;;16.56;100.00
6500;BME280;3283;52.330;9.772;2022-09-13T02:45:54;100152.13;;;16.50;100.00
6500;BME280;3283;52.330;9.772;2022-09-13T02:48:37;100167.59;;;16.60;100.00
6500;BME280;3283;52.330;9.772;2022-09-13T02:51:23;100159.97;;;16.53;100.00
6500;BME280;3283;52.330;9.772;2022-09-13T02:59:17;100188.50;;;16.47;100.00
6500;BME280;3283;52.330;9.772;2022-09-13T03:01:48;100178.31;;;16.38;100.00
6500;BME280;3283;52.330;9.772;2022-09-13T03:04:15;100181.75;;;16.40;100.00
6500;BME280;3283;52.330;9.772;2022-09-13T03:06:40;100180.69;;;16.44;100.00
6500;BME280;3283;52.330;9.772;2022-09-13T03:09:07;100173.50;;;16.46;100.00
6500;BME280;3283;52.330;9.772;2022-09-13T03:17:31;100178.16;;;16.41;100.00
6500;BME280;3283;52.330;9.772;2022-09-13T03:30:33;100158.72;;;16.20;100.00
6500;BME280;3283;52.330;9.772;2022-09-13T03:33:05;100152.69;;;16.17;100.00
6500;BME280;3283;52.330;9.772;2022-09-13T03:38:32;100156.13;;;16.19;100.00
6500;BME280;3283;52.330;9.772;2022-09-13T03:41:08;100157.81;;;16.22;100.00
6500;BME280;3283;52.330;9.772;2022-09-13T03:43:52;100149.63;;;16.26;100.00
6500;BME280;3283;52.330;9.772;2022-09-13T03:46:34;100145.06;;;16.30;100.00
6500;BME280;3283;52.330;9.772;2022-09-13T03:49:06;100152.00;;;16.32;100.00
6500;BME280;3283;52.330;9.772;2022-09-13T03:51:33;100152.28;;;16.26;100.00
6500;BME280;3283;52.330;9.772;2022-09-13T03:54:03;100151.81;;;16.16;100.00
6500;BME280;3283;52.330;9.772;2022-09-13T03:56:29;100145.78;;;16.13;100.00
6500;BME280;3283;52.330;9.772;2022-09-13T03:58:55;100138.66;;;16.13;100.00
6500;BME280;3283;52.330;9.772;2022-09-13T04:01:22;100123.56;;;16.15;100.00
6500;BME280;3283;52.330;9.772;2022-09-13T04:03:49;100127.19;;;16.33;100.00
6500;BME280;3283;52.330;9.772;2022-09-13T04:06:14;100118.69;;;16.25;100.00
6500;BME280;3283;52.330;9.772;2022-09-13T04:08:40;100130.25;;;16.24;100.00
6500;BME280;3283;52.330;9.772;2022-09-13T04:11:05;100125.72;;;16.26;100.00
6500;BME280;3283;52.330;9.772;2022-09-13T04:13:30;100119.00;;;16.38;100.00
6500;BME280;3283;52.330;9.772;2022-09-13T04:16:00;100116.16;;;16.42;100.00
6500;BME280;3283;52.330;9.772;2022-09-13T04:18:28;100109.41;;;16.35;100.00
6500;BME280;3283;52.330;9.772;2022-09-13T04:20:56;100120.03;;;16.35;100.00
6500;BME280;3283;52.330;9.772;2022-09-13T04:23:22;100129.03;;;16.31;100.00
6500;BME280;3283;52.330;9.772;2022-09-13T04:25:48;100137.53;;;16.39;100.00
6500;BME280;3283;52.330;9.772;2022-09-13T04:28:17;100123.19;;;16.43;100.00
6500;BME280;3283;52.330;9.772;2022-09-13T04:30:44;100125.03;;;16.41;100.00
6500;BME280;3283;52.330;9.772;2022-09-13T04:33:09;100131.09;;;16.45;100.00
6500;BME280;3283;52.330;9.772;2022-09-13T04:35:35;100134.22;;;16.34;100.00
6500;BME280;3283;52.330;9.772;2022-09-13T04:38:00;100136.66;;;16.39;100.00
6500;BME280;3283;52.330;9.772;2022-09-13T04:40:26;100135.81;;;16.38;100.00
6500;BME280;3283;52.330;9.772;2022-09-13T04:42:51;100126.47;;;16.48;100.00
6500;BME280;3283;52.330;9.772;2022-09-13T04:45:17;100121.25;;;16.47;100.00
6500;BME280;3283;52.330;9.772;2022-09-13T04:47:42;100120.94;;;16.34;100.00
6500;BME280;3283;52.330;9.772;2022-09-13T04:50:08;100124.94;;;16.24;100.00
6500;BME280;3283;52.330;9.772;2022-09-13T04:52:34;100128.72;;;16.18;100.00
6500;BME280;3283;52.330;9.772;2022-09-13T04:55:00;100134.78;;;16.22;100.00
6500;BME280;3283;52.330;9.772;2022-09-13T04:57:27;100132.16;;;16.20;100.00
6500;BME280;3283;52.330;9.772;2022-09-13T04:59:52;100129.72;;;16.16;100.00
6500;BME280;3283;52.330;9.772;2022-09-13T05:02:18;100128.19;;;16.31;100.00
6500;BME280;3283;52.330;9.772;2022-09-13T05:04:43;100122.59;;;16.37;100.00
6500;BME280;3283;52.330;9.772;2022-09-13T05:07:09;100119.28;;;16.32;100.00
6500;BME280;3283;52.330;9.772;2022-09-13T05:09:34;100136.50;;;16.23;100.00
6500;BME280;3283;52.330;9.772;2022-09-13T05:11:59;100136.34;;;16.26;100.00
6500;BME280;3283;52.330;9.772;2022-09-13T05:14:25;100136.81;;;16.36;100.00
6500;BME280;3283;52.330;9.772;2022-09-13T05:16:50;100139.84;;;16.47;100.00
6500;BME280;3283;52.330;9.772;2022-09-13T05:19:16;100136.31;;;16.46;100.00
6500;BME280;3283;52.330;9.772;2022-09-13T05:21:41;100137.41;;;16.42;100.00
6500;BME280;3283;52.330;9.772;2022-09-13T05:24:07;100139.25;;;16.40;100.00
6500;BME280;3283;52.330;9.772;2022-09-13T05:26:32;100136.41;;;16.45;100.00
6500;BME280;3283;52.330;9.772;2022-09-13T05:28:58;100144.03;;;16.53;100.00
6500;BME280;3283;52.330;9.772;2022-09-13T05:34:00;100131.91;;;16.66;100.00
6500;BME280;3283;52.330;9.772;2022-09-13T05:36:26;100134.69;;;16.63;100.00
6500;BME280;3283;52.330;9.772;2022-09-13T05:38:55;100133.13;;;16.59;100.00
6500;BME280;3283;52.330;9.772;2022-09-13T05:41:22;100132.19;;;16.60;100.00
6500;BME280;3283;52.330;9.772;2022-09-13T05:43:48;100141.75;;;16.64;100.00
6500;BME280;3283;52.330;9.772;2022-09-13T05:46:15;100139.13;;;16.62;100.00
6500;BME280;3283;52.330;9.772;2022-09-13T05:48:42;100145.47;;;16.60;100.00
6500;BME280;3283;52.330;9.772;2022-09-13T05:53:39;100147.59;;;16.72;100.00
6500;BME280;3283;52.330;9.772;2022-09-13T05:56:07;100137.59;;;16.77;100.00
6500;BME280;3283;52.330;9.772;2022-09-13T05:58:33;100130.78;;;16.90;100.00
6500;BME280;3283;52.330;9.772;2022-09-13T06:00:59;100132.47;;;16.93;100.00
6500;BME280;3283;52.330;9.772;2022-09-13T06:03:25;100119.22;;;16.91;100.00
6500;BME280;3283;52.330;9.772;2022-09-13T06:05:54;100123.47;;;16.95;100.00
6500;BME280;3283;52.330;9.772;2022-09-13T06:08:21;100130.44;;;16.98;100.00
6500;BME280;3283;52.330;9.772;2022-09-13T06:10:57;100125.84;;;17.01;100.00
6500;BME280;3283;52.330;9.772;2022-09-13T06:13:24;100135.91;;;17.14;100.00
6500;BME280;3283;52.330;9.772;2022-09-13T06:15:53;100137.47;;;17.18;100.00
6500;BME280;3283;52.330;9.772;2022-09-13T06:18:20;100135.28;;;17.26;100.00
6500;BME280;3283;52.330;9.772;2022-09-13T06:20:46;100127.69;;;17.37;100.00
6500;BME280;3283;52.330;9.772;2022-09-13T06:23:12;100125.41;;;17.47;100.00
6500;BME280;3283;52.330;9.772;2022-09-13T06:25:37;100128.94;;;17.47;100.00
6500;BME280;3283;52.330;9.772;2022-09-13T06:28:03;100125.38;;;17.66;100.00
6500;BME280;3283;52.330;9.772;2022-09-13T06:30:29;100115.03;;;17.60;100.00
6500;BME280;3283;52.330;9.772;2022-09-13T06:32:55;100099.44;;;17.71;100.00
6500;BME280;3283;52.330;9.772;2022-09-13T06:35:21;100115.09;;;17.77;100.00
6500;BME280;3283;52.330;9.772;2022-09-13T06:37:47;100097.03;;;17.65;100.00
6500;BME280;3283;52.330;9.772;2022-09-13T06:40:12;100121.63;;;17.70;100.00
6500;BME280;3283;52.330;9.772;2022-09-13T06:42:38;100116.44;;;17.67;100.00
6500;BME280;3283;52.330;9.772;2022-09-13T06:45:04;100111.00;;;17.70;100.00
6500;BME280;3283;52.330;9.772;2022-09-13T06:47:30;100109.59;;;17.80;100.00
6500;BME280;3283;52.330;9.772;2022-09-13T06:49:56;100110.38;;;17.82;100.00
6500;BME280;3283;52.330;9.772;2022-09-13T06:52:22;100105.00;;;17.83;100.00
6500;BME280;3283;52.330;9.772;2022-09-13T06:54:47;100123.06;;;17.94;100.00
6500;BME280;3283;52.330;9.772;2022-09-13T06:57:13;100123.69;;;17.99;100.00
6500;BME280;3283;52.330;9.772;2022-09-13T06:59:39;100124.84;;;18.11;100.00
6500;BME280;3283;52.330;9.772;2022-09-13T07:02:05;100125.56;;;18.15;100.00
6500;BME280;3283;52.330;9.772;2022-09-13T07:04:30;100123.22;;;18.26;100.00
6500;BME280;3283;52.330;9.772;2022-09-13T07:06:56;100135.72;;;18.24;100.00
6500;BME280;3283;52.330;9.772;2022-09-13T07:09:23;100126.78;;;18.25;100.00
6500;BME280;3283;52.330;9.772;2022-09-13T07:11:51;100129.78;;;18.36;100.00
6500;BME280;3283;52.330;9.772;2022-09-13T07:14:20;100133.53;;;18.32;100.00
6500;BME280;3283;52.330;9.772;2022-09-13T07:16:46;100123.03;;;18.29;100.00
6500;BME280;3283;52.330;9.772;2022-09-13T07:19:14;100130.25;;;18.27;100.00
6500;BME280;3283;52.330;9.772;2022-09-13T07:21:40;100131.13;;;18.27;100.00
6500;BME280;3283;52.330;9.772;2022-09-13T07:24:06;100123.13;;;18.27;100.00
6500;BME280;3283;52.330;9.772;2022-09-13T07:26:31;100131.56;;;18.35;100.00
6500;BME280;3283;52.330;9.772;2022-09-13T07:28:59;100132.47;;;18.52;100.00
6500;BME280;3283;52.330;9.772;2022-09-13T07:31:36;100143.06;;;18.71;100.00
6500;BME280;3283;52.330;9.772;2022-09-13T07:34:05;100138.44;;;18.90;100.00
6500;BME280;3283;52.330;9.772;2022-09-13T07:36:33;100129.16;;;18.97;100.00
6500;BME280;3283;52.330;9.772;2022-09-13T07:38:58;100141.44;;;19.15;100.00
6500;BME280;3283;52.330;9.772;2022-09-13T07:41:27;100139.50;;;19.19;100.00
6500;BME280;3283;52.330;9.772;2022-09-13T07:43:53;100147.22;;;19.24;100.00
6500;BME280;3283;52.330;9.772;2022-09-13T07:46:21;100138.88;;;19.30;100.00
6500;BME280;3283;52.330;9.772;2022-09-13T07:48:47;100125.28;;;19.18;100.00
6500;BME280;3283;52.330;9.772;2022-09-13T07:51:28;100142.25;;;19.17;100.00
6500;BME280;3283;52.330;9.772;2022-09-13T07:53:55;100142.50;;;19.13;100.00
6500;BME280;3283;52.330;9.772;2022-09-13T07:56:26;100144.66;;;19.06;100.00
6500;BME280;3283;52.330;9.772;2022-09-13T07:58:52;100144.88;;;19.02;100.00
6500;BME280;3283;52.330;9.772;2022-09-13T08:03:59;100146.09;;;18.96;100.00
6500;BME280;3283;52.330;9.772;2022-09-13T08:06:26;100153.16;;;18.97;100.00
6500;BME280;3283;52.330;9.772;2022-09-13T08:08:53;100161.94;;;19.15;100.00
6500;BME280;3283;52.330;9.772;2022-09-13T08:11:21;100158.25;;;19.33;100.00
6500;BME280;3283;52.330;9.772;2022-09-13T08:13:49;100156.66;;;19.45;100.00
6500;BME280;3283;52.330;9.772;2022-09-13T08:16:17;100157.88;;;19.55;100.00
6500;BME280;3283;52.330;9.772;2022-09-13T08:18:44;100143.28;;;19.62;100.00
6500;BME280;3283;52.330;9.772;2022-09-13T08:21:10;100166.81;;;19.86;100.00
6500;BME280;3283;52.330;9.772;2022-09-13T08:23:36;100163.38;;;19.84;100.00
6500;BME280;3283;52.330;9.772;2022-09-13T08:26:02;100166.28;;;19.95;100.00
6500;BME280;3283;52.330;9.772;2022-09-13T08:28:28;100170.91;;;20.21;100.00
6500;BME280;3283;52.330;9.772;2022-09-13T08:30:56;100168.25;;;20.21;100.00
6500;BME280;3283;52.330;9.772;2022-09-13T08:33:26;100174.38;;;20.23;100.00
6500;BME280;3283;52.330;9.772;2022-09-13T08:35:52;100176.88;;;20.41;100.00
6500;BME280;3283;52.330;9.772;2022-09-13T08:38:18;100184.16;;;20.39;100.00
6500;BME280;3283;52.330;9.772;2022-09-13T08:40:52;100183.72;;;20.46;100.00
6500;BME280;3283;52.330;9.772;2022-09-13T08:43:39;100176.13;;;20.39;100.00
6500;BME280;3283;52.330;9.772;2022-09-13T08:48:50;100171.44;;;20.72;100.00
6500;BME280;3283;52.330;9.772;2022-09-13T08:51:27;100168.81;;;20.99;99.75
6500;BME280;3283;52.330;9.772;2022-09-13T08:53:54;100168.72;;;21.15;97.90
6500;BME280;3283;52.330;9.772;2022-09-13T08:57:08;100169.25;;;21.34;98.07
6500;BME280;3283;52.330;9.772;2022-09-13T09:04:56;100165.47;;;21.10;98.18
6500;BME280;3283;52.330;9.772;2022-09-13T09:07:27;100163.28;;;21.02;97.28
6500;BME280;3283;52.330;9.772;2022-09-13T09:10:14;100159.75;;;21.02;95.79
6500;BME280;3283;52.330;9.772;2022-09-13T09:12:41;100155.91;;;20.92;98.15
6500;BME280;3283;52.330;9.772;2022-09-13T09:17:47;100165.38;;;20.97;92.75
6500;BME280;3283;52.330;9.772;2022-09-13T09:23:00;100173.50;;;20.53;96.88
6500;BME280;3283;52.330;9.772;2022-09-13T09:25:27;100175.81;;;20.43;98.23
6500;BME280;3283;52.330;9.772;2022-09-13T09:27:52;100174.78;;;20.32;97.80
6500;BME280;3283;52.330;9.772;2022-09-13T09:30:19;100174.44;;;20.22;96.48
6500;BME280;3283;52.330;9.772;2022-09-13T09:40:56;100167.00;;;21.00;95.87
6500;BME280;3283;52.330;9.772;2022-09-13T09:43:27;100159.38;;;21.08;93.95
6500;BME280;3283;52.330;9.772;2022-09-13T09:45:55;100163.91;;;21.20;93.50
6500;BME280;3283;52.330;9.772;2022-09-13T09:48:26;100169.09;;;21.23;91.36
6500;BME280;3283;52.330;9.772;2022-09-13T09:50:56;100155.91;;;20.92;92.01
6500;BME280;3283;52.330;9.772;2022-09-13T09:53:32;100153.03;;;20.38;95.21
6500;BME280;3283;52.330;9.772;2022-09-13T09:56:05;100152.50;;;20.17;97.57
6500;BME280;3283;52.330;9.772;2022-09-13T09:58:38;100153.69;;;19.97;98.81
6500;BME280;3283;52.330;9.772;2022-09-13T10:01:05;100154.31;;;19.86;99.29
6500;BME280;3283;52.330;9.772;2022-09-13T10:03:39;100154.66;;;19.80;99.85
6500;BME280;3283;52.330;9.772;2022-09-13T10:06:18;100159.84;;;19.83;99.28
6500;BME280;3283;52.330;9.772;2022-09-13T10:08:53;100167.66;;;19.86;98.74
6500;BME280;3283;52.330;9.772;2022-09-13T10:11:20;100160.91;;;19.81;100.00
6500;BME280;3283;52.330;9.772;2022-09-13T10:14:00;100156.97;;;19.86;100.00
6500;BME280;3283;52.330;9.772;2022-09-13T10:16:30;100165.25;;;19.97;100.00
6500;BME280;3283;52.330;9.772;2022-09-13T10:19:24;100158.84;;;20.30;100.00
6500;BME280;3283;52.330;9.772;2022-09-13T10:22:02;100152.25;;;20.36;100.00
6500;BME280;3283;52.330;9.772;2022-09-13T10:24:28;100146.41;;;20.59;100.00
6500;BME280;3283;52.330;9.772;2022-09-13T10:26:56;100136.84;;;20.69;97.46
6500;BME280;3283;52.330;9.772;2022-09-13T10:29:23;100156.63;;;20.81;97.92
6500;BME280;3283;52.330;9.772;2022-09-13T10:31:51;100148.59;;;20.81;97.44
6500;BME280;3283;52.330;9.772;2022-09-13T10:39:27;100159.19;;;20.54;99.17
6500;BME280;3283;52.330;9.772;2022-09-13T10:42:03;100148.00;;;20.62;98.64
6500;BME280;3283;52.330;9.772;2022-09-13T10:47:03;100148.22;;;20.87;99.95
6500;BME280;3283;52.330;9.772;2022-09-13T10:49:39;100146.50;;;21.27;96.67
6500;BME280;3283;52.330;9.772;2022-09-13T10:54:51;100153.97;;;21.63;95.80
6500;BME280;3283;52.330;9.772;2022-09-13T10:57:31;100157.09;;;21.70;92.84
6500;BME280;3283;52.330;9.772;2022-09-13T10:59:58;100156.84;;;21.33;94.60
6500;BME280;3283;52.330;9.772;2022-09-13T11:18:43;100160.28;;;21.07;99.81
6500;BME280;3283;52.330;9.772;2022-09-13T11:21:39;100147.25;;;20.88;99.69
6500;BME280;3283;52.330;9.772;2022-09-13T11:37:32;100146.47;;;20.57;100.00
6500;BME280;3283;52.330;9.772;2022-09-13T11:42:50;100135.69;;;20.45;100.00
6500;BME280;3283;52.330;9.772;2022-09-13T11:45:26;100136.69;;;20.42;100.00
6500;BME280;3283;52.330;9.772;2022-09-13T11:50:57;100132.19;;;20.43;100.00
6500;BME280;3283;52.330;9.772;2022-09-13T11:56:00;100137.31;;;20.76;100.00
6500;BME280;3283;52.330;9.772;2022-09-13T11:58:35;100143.72;;;20.88;100.00
6500;BME280;3283;52.330;9.772;2022-09-13T12:01:06;100145.22;;;20.77;100.00
6500;BME280;3283;52.330;9.772;2022-09-13T12:03:45;100141.91;;;20.88;100.00
6500;BME280;3283;52.330;9.772;2022-09-13T12:06:18;100137.03;;;20.95;99.85
6500;BME280;3283;52.330;9.772;2022-09-13T12:08:53;100135.19;;;20.95;99.99
6500;BME280;3283;52.330;9.772;2022-09-13T12:11:21;100132.19;;;21.14;100.00
6500;BME280;3283;52.330;9.772;2022-09-13T12:13:51;100135.66;;;21.16;99.74
6500;BME280;3283;52.330;9.772;2022-09-13T12:16:54;100127.28;;;20.94;100.00
6500;BME280;3283;52.330;9.772;2022-09-13T12:21:55;100129.00;;;20.52;100.00
6500;BME280;3283;52.330;9.772;2022-09-13T12:24:31;100130.38;;;20.43;100.00
6500;BME280;3283;52.330;9.772;2022-09-13T12:29:34;100129.72;;;20.25;100.00
6500;BME280;3283;52.330;9.772;2022-09-13T12:32:06;100133.88;;;20.15;100.00
6500;BME280;3283;52.330;9.772;2022-09-13T12:39:53;100128.88;;;19.65;100.00
6500;BME280;3283;52.330;9.772;2022-09-13T12:48:02;100129.56;;;19.98;100.00
6500;BME280;3283;52.330;9.772;2022-09-13T13:02:02;100141.16;;;19.52;100.00
6500;BME280;3283;52.330;9.772;2022-09-13T13:04:33;100134.03;;;19.36;100.00
6500;BME280;3283;52.330;9.772;2022-09-13T13:07:06;100132.50;;;19.32;100.00
6500;BME280;3283;52.330;9.772;2022-09-13T13:12:00;100125.78;;;19.41;100.00
6500;BME280;3283;52.330;9.772;2022-09-13T13:14:42;100114.94;;;19.60;100.00
6500;BME280;3283;52.330;9.772;2022-09-13T13:17:48;100118.47;;;19.90;100.00
6500;BME280;3283;52.330;9.772;2022-09-13T13:23:29;100116.13;;;19.70;100.00
6500;BME280;3283;52.330;9.772;2022-09-13T13:26:05;100120.34;;;19.74;100.00
6500;BME280;3283;52.330;9.772;2022-09-13T13:36:30;100117.47;;;20.21;100.00
6500;BME280;3283;52.330;9.772;2022-09-13T13:39:00;100124.47;;;19.94;100.00
6500;BME280;3283;52.330;9.772;2022-09-13T13:46:44;100123.97;;;20.17;100.00
6500;BME280;3283;52.330;9.772;2022-09-13T13:59:48;100102.22;;;20.09;100.00
6500;BME280;3283;52.330;9.772;2022-09-13T14:02:19;100100.47;;;20.08;100.00
6500;BME280;3283;52.330;9.772;2022-09-13T14:10:31;100097.31;;;20.60;100.00
6500;BME280;3283;52.330;9.772;2022-09-13T14:13:11;100105.69;;;20.82;100.00
6500;BME280;3283;52.330;9.772;2022-09-13T14:16:09;100104.78;;;21.10;99.83
6500;BME280;3283;52.330;9.772;2022-09-13T14:21:25;100099.81;;;21.04;99.62
6500;BME280;3283;52.330;9.772;2022-09-13T14:24:22;100097.84;;;21.35;99.10
6500;BME280;3283;52.330;9.772;2022-09-13T14:26:57;100093.97;;;21.53;96.37
6500;BME280;3283;52.330;9.772;2022-09-13T14:29:24;100093.34;;;21.62;96.24
6500;BME280;3283;52.330;9.772;2022-09-13T14:31:53;100091.22;;;21.67;96.23
6500;BME280;3283;52.330;9.772;2022-09-13T14:34:26;100095.03;;;21.51;96.73
6500;BME280;3283;52.330;9.772;2022-09-13T14:36:56;100084.50;;;21.48;97.02
6500;BME280;3283;52.330;9.772;2022-09-13T14:39:23;100078.97;;;21.63;96.55
6500;BME280;3283;52.330;9.772;2022-09-13T14:41:58;100084.84;;;21.43;96.78
6500;BME280;3283;52.330;9.772;2022-09-13T14:44:25;100078.84;;;21.25;97.75
6500;BME280;3283;52.330;9.772;2022-09-13T14:47:05;100083.06;;;21.29;97.22
6500;BME280;3283;52.330;9.772;2022-09-13T14:49:39;100075.31;;;21.25;94.06
6500;BME280;3283;52.330;9.772;2022-09-13T14:52:15;100076.25;;;21.24;94.73
6500;BME280;3283;52.330;9.772;2022-09-13T14:54:47;100075.19;;;21.26;95.06
6500;BME280;3283;52.330;9.772;2022-09-13T14:57:25;100073.69;;;21.22;95.81
6500;BME280;3283;52.330;9.772;2022-09-13T14:59:55;100074.19;;;21.29;95.59
6500;BME280;3283;52.330;9.772;2022-09-13T15:02:26;100084.00;;;21.28;94.17
6500;BME280;3283;52.330;9.772;2022-09-13T15:04:56;100081.09;;;21.46;94.47
6500;BME280;3283;52.330;9.772;2022-09-13T15:09:48;100074.81;;;22.12;87.71
6500;BME280;3283;52.330;9.772;2022-09-13T15:12:26;100077.31;;;22.90;85.15
6500;BME280;3283;52.330;9.772;2022-09-13T15:17:57;100073.19;;;23.10;82.47
6500;BME280;3283;52.330;9.772;2022-09-13T15:20:24;100078.75;;;22.70;81.81
6500;BME280;3283;52.330;9.772;2022-09-13T15:22:52;100080.72;;;22.42;84.29
6500;BME280;3283;52.330;9.772;2022-09-13T15:25:28;100074.16;;;22.34;86.66
6500;BME280;3283;52.330;9.772;2022-09-13T15:27:55;100067.25;;;22.55;84.92
6500;BME280;3283;52.330;9.772;2022-09-13T15:30:37;100068.41;;;23.26;84.62
6500;BME280;3283;52.330;9.772;2022-09-13T15:35:40;100065.50;;;24.46;75.27
6500;BME280;3283;52.330;9.772;2022-09-13T15:38:17;100072.31;;;23.81;73.64
6500;BME280;3283;52.330;9.772;2022-09-13T15:40:45;100070.47;;;22.73;78.25
6500;BME280;3283;52.330;9.772;2022-09-13T15:43:11;100066.22;;;22.58;78.86
6500;BME280;3283;52.330;9.772;2022-09-13T15:45:37;100078.47;;;22.24;80.25
6500;BME280;3283;52.330;9.772;2022-09-13T15:48:03;100063.44;;;22.08;82.79
6500;BME280;3283;52.330;9.772;2022-09-13T15:50:30;100065.13;;;22.60;82.15
6500;BME280;3283;52.330;9.772;2022-09-13T15:52:58;100076.63;;;23.36;78.32
6500;BME280;3283;52.330;9.772;2022-09-13T15:55:24;100071.81;;;23.52;77.54
6500;BME280;3283;52.330;9.772;2022-09-13T15:57:50;100076.41;;;23.63;76.99
6500;BME280;3283;52.330;9.772;2022-09-13T16:00:21;100078.78;;;23.07;77.24
6500;BME280;3283;52.330;9.772;2022-09-13T16:02:47;100069.56;;;22.48;77.89
6500;BME280;3283;52.330;9.772;2022-09-13T16:05:13;100072.00;;;22.52;78.65
6500;BME280;3283;52.330;9.772;2022-09-13T16:07:39;100080.03;;;22.77;78.74
6500;BME280;3283;52.330;9.772;2022-09-13T16:10:19;100064.88;;;22.76;77.58
6500;BME280;3283;52.330;9.772;2022-09-13T16:12:47;100066.97;;;23.09;76.17
6500;BME280;3283;52.330;9.772;2022-09-13T16:15:13;100071.25;;;23.12;74.00
6500;BME280;3283;52.330;9.772;2022-09-13T16:17:38;100083.28;;;22.44;74.97
6500;BME280;3283;52.330;9.772;2022-09-13T16:20:05;100074.53;;;22.79;73.83
6500;BME280;3283;52.330;9.772;2022-09-13T16:22:32;100074.47;;;23.65;69.61
6500;BME280;3283;52.330;9.772;2022-09-13T16:24:58;100079.25;;;24.19;67.18
6500;BME280;3283;52.330;9.772;2022-09-13T16:27:23;100082.72;;;24.88;65.28
6500;BME280;3283;52.330;9.772;2022-09-13T16:29:51;100067.00;;;24.03;66.36
6500;BME280;3283;52.330;9.772;2022-09-13T16:32:17;100079.47;;;23.21;68.55
6500;BME280;3283;52.330;9.772;2022-09-13T16:34:42;100074.03;;;23.58;67.33
6500;BME280;3283;52.330;9.772;2022-09-13T16:37:12;100074.34;;;23.66;67.31